AQQ10 IFIS: Internet Flight Information System
logo dgac
Miércoles 19 de Junio del 2024
Buscar por aerodromo o helipuerto
Ingrese nombre de aeródromo, localidad o designador OACI:
METAR del 19-06-2024 a las 11:00 UTC
Para mayor información visite www.meteochile.gob.cl
METAR SCIP 191100Z 06003KT 020V110 9999 BKN015 18/17 Q1025 NOSIG
Viento: dirección 060 grados, velocidad 3 nudos
Viento con dirección variable entre 020 y 110 grados
Visibilidad: 10 km o más
Nubes: Nublado a 1500 pies sobre el nivel del aeródromo
Temperatura: 18 °C
Rocío: 17 °C
Humedad_relativa: 94%
Presión: 1025 hPa
No se esperan cambios significativos en las próximas 2 horas
METAR del 19-06-2024 a las 10:00 UTC
Para mayor información visite www.meteochile.gob.cl
METAR SCIP 191000Z 14004KT 9999 BKN020 17/16 Q1025 NOSIG
Viento: dirección 140 grados, velocidad 4 nudos
Visibilidad: 10 km o más
Nubes: Nublado a 2000 pies sobre el nivel del aeródromo
Temperatura: 17 °C
Rocío: 16 °C
Humedad_relativa: 94%
Presión: 1025 hPa
No se esperan cambios significativos en las próximas 2 horas
METAR del 19-06-2024 a las 09:00 UTC
Para mayor información visite www.meteochile.gob.cl
METAR SCIP 190900Z 11004KT CAVOK 17/15 Q1026 NOSIG
Viento: dirección 110 grados, velocidad 4 nudos
Visibilidad: 10 km o más,
    sin nubes bajo los 5.000 pies o bajo del MSA (Mínimo de Seguridad del Aeródromo),
    sin cumulonimbus, y sin fenómenos de tiempo significativo en el aeródromo o alrededores
Temperatura: 17 °C
Rocío: 15 °C
Humedad_relativa: 88%
Presión: 1026 hPa
No se esperan cambios significativos en las próximas 2 horas
METAR del 19-06-2024 a las 08:00 UTC
Para mayor información visite www.meteochile.gob.cl
METAR SCIP 190800Z 13004KT 9999 SCT040 18/17 Q1026 NOSIG
Viento: dirección 130 grados, velocidad 4 nudos
Visibilidad: 10 km o más
Nubes: Nubosidad parcial a 4000 pies sobre el nivel del aeródromo
Temperatura: 18 °C
Rocío: 17 °C
Humedad_relativa: 94%
Presión: 1026 hPa
No se esperan cambios significativos en las próximas 2 horas
METAR del 19-06-2024 a las 07:00 UTC
Para mayor información visite www.meteochile.gob.cl
METAR SCIP 190700Z 11005KT 010V130 9999 SCT011 17/16 Q1026 NOSIG
Viento: dirección 110 grados, velocidad 5 nudos
Viento con dirección variable entre 010 y 130 grados
Visibilidad: 10 km o más
Nubes: Nubosidad parcial a 1100 pies sobre el nivel del aeródromo
Temperatura: 17 °C
Rocío: 16 °C
Humedad_relativa: 94%
Presión: 1026 hPa
No se esperan cambios significativos en las próximas 2 horas
METAR del 19-06-2024 a las 06:00 UTC
Para mayor información visite www.meteochile.gob.cl
METAR SCIP 190600Z 10006KT 9999 SCT010 17/16 Q1026 NOSIG
Viento: dirección 100 grados, velocidad 6 nudos
Visibilidad: 10 km o más
Nubes: Nubosidad parcial a 1000 pies sobre el nivel del aeródromo
Temperatura: 17 °C
Rocío: 16 °C
Humedad_relativa: 94%
Presión: 1026 hPa
No se esperan cambios significativos en las próximas 2 horas
METAR del 19-06-2024 a las 05:00 UTC
Para mayor información visite www.meteochile.gob.cl
METAR SCIP 190500Z 12006KT CAVOK 16/15 Q1026 NOSIG
Viento: dirección 120 grados, velocidad 6 nudos
Visibilidad: 10 km o más,
    sin nubes bajo los 5.000 pies o bajo del MSA (Mínimo de Seguridad del Aeródromo),
    sin cumulonimbus, y sin fenómenos de tiempo significativo en el aeródromo o alrededores
Temperatura: 16 °C
Rocío: 15 °C
Humedad_relativa: 94%
Presión: 1026 hPa
No se esperan cambios significativos en las próximas 2 horas
METAR del 19-06-2024 a las 04:00 UTC
Para mayor información visite www.meteochile.gob.cl
METAR SCIP 190400Z 11005KT CAVOK 17/16 Q1026 NOSIG
Viento: dirección 110 grados, velocidad 5 nudos
Visibilidad: 10 km o más,
    sin nubes bajo los 5.000 pies o bajo del MSA (Mínimo de Seguridad del Aeródromo),
    sin cumulonimbus, y sin fenómenos de tiempo significativo en el aeródromo o alrededores
Temperatura: 17 °C
Rocío: 16 °C
Humedad_relativa: 94%
Presión: 1026 hPa
No se esperan cambios significativos en las próximas 2 horas
METAR del 19-06-2024 a las 03:00 UTC
Para mayor información visite www.meteochile.gob.cl
METAR SCIP 190300Z 10004KT 9999 FEW013 17/16 Q1026 NOSIG
Viento: dirección 100 grados, velocidad 4 nudos
Visibilidad: 10 km o más
Nubes: Escasa nubosidad a 1300 pies sobre el nivel del aeródromo
Temperatura: 17 °C
Rocío: 16 °C
Humedad_relativa: 94%
Presión: 1026 hPa
No se esperan cambios significativos en las próximas 2 horas
METAR del 19-06-2024 a las 02:00 UTC
Para mayor información visite www.meteochile.gob.cl
METAR SCIP 190200Z 11006KT 9999 FEW015 18/16 Q1026 NOSIG
Viento: dirección 110 grados, velocidad 6 nudos
Visibilidad: 10 km o más
Nubes: Escasa nubosidad a 1500 pies sobre el nivel del aeródromo
Temperatura: 18 °C
Rocío: 16 °C
Humedad_relativa: 88%
Presión: 1026 hPa
No se esperan cambios significativos en las próximas 2 horas